Time;durP1;ratioP1;P1;durP2;ratioP2;P2;SDS_P1;SDS_P2;PMS_P1;PMS_P2;Temp;Humidity;BMP_temperature;BMP_pressure;BME280_temperature;BME280_humidity;BME280_pressure;Samples;Min_cycle;Max_cycle;Signal;HPM_P1;HPM_P2
2021/01/12 00:00:11;;;;;;;38.03;19.40;;;;;;;-3.94;70.80;96654.78;5024624;28;20044;-71
2021/01/12 00:02:37;;;;;;;43.85;21.50;;;;;;;-3.89;70.87;96652.66;5049268;28;20041;-70
2021/01/12 00:05:06;;;;;;;39.60;19.52;;;;;;;-3.88;70.70;96655.09;5043581;28;20139;-71
2021/01/12 00:07:32;;;;;;;39.95;20.67;;;;;;;-3.91;70.95;96650.19;5054315;28;20053;-71
2021/01/12 00:09:58;;;;;;;35.05;18.90;;;;;;;-3.89;70.65;96647.53;5038949;28;20048;-71
2021/01/12 00:12:24;;;;;;;43.20;19.98;;;;;;;-3.87;70.78;96645.66;5039831;28;20041;-72
2021/01/12 00:14:51;;;;;;;39.30;20.67;;;;;;;-3.85;70.97;96632.72;5044590;28;20552;-71
2021/01/12 00:17:17;;;;;;;38.50;20.05;;;;;;;-3.80;70.79;96626.31;5045138;28;20044;-70
2021/01/12 00:19:44;;;;;;;42.83;21.10;;;;;;;-3.76;70.93;96630.25;5040999;28;20049;-74
2021/01/12 00:22:14;;;;;;;39.20;19.17;;;;;;;-3.76;70.80;96616.59;5019831;28;20394;-71
2021/01/12 00:24:44;;;;;;;43.05;20.85;;;;;;;-3.76;70.81;96621.72;5045867;28;20056;-71
2021/01/12 00:27:12;;;;;;;39.13;19.52;;;;;;;-3.79;70.40;96611.72;5047052;28;20053;-71
2021/01/12 00:29:39;;;;;;;42.13;20.52;;;;;;;-3.79;70.65;96616.88;5042045;28;20052;-71
2021/01/12 00:32:18;;;;;;;38.55;19.98;;;;;;;-3.84;70.85;96607.00;5039032;28;20055;-75
2021/01/12 00:34:44;;;;;;;45.88;21.10;;;;;;;-3.87;70.48;96602.91;5028221;28;20457;-71
2021/01/12 00:37:10;;;;;;;45.30;20.33;;;;;;;-3.89;70.84;96594.53;5031674;28;20052;-71
2021/01/12 00:39:37;;;;;;;44.25;21.55;;;;;;;-3.90;70.60;96597.25;5046128;28;20045;-71
2021/01/12 00:42:03;;;;;;;41.25;20.52;;;;;;;-3.89;70.54;96603.97;5045990;28;20052;-71
2021/01/12 00:44:29;;;;;;;39.03;20.40;;;;;;;-3.89;70.77;96586.03;5053316;28;20496;-71
2021/01/12 00:46:56;;;;;;;42.00;19.00;;;;;;;-3.91;70.91;96581.03;5043569;28;20048;-71
2021/01/12 00:49:23;;;;;;;41.83;20.35;;;;;;;-3.91;70.75;96567.41;5048727;28;20059;-71
2021/01/12 00:51:50;;;;;;;40.60;19.75;;;;;;;-3.92;70.82;96565.81;5042242;28;20037;-72
2021/01/12 00:54:18;;;;;;;37.85;19.13;;;;;;;-3.85;71.19;96568.66;5054212;28;20470;-72
2021/01/12 00:56:45;;;;;;;44.22;20.25;;;;;;;-3.84;71.12;96572.84;5026299;28;20056;-71
2021/01/12 00:59:11;;;;;;;38.83;19.60;;;;;;;-3.85;70.88;96571.25;5046343;28;20056;-76
2021/01/12 01:01:37;;;;;;;38.90;20.10;;;;;;;-3.88;70.92;96564.63;5046603;28;20045;-71
2021/01/12 01:04:05;;;;;;;37.83;18.35;;;;;;;-3.85;70.97;96561.00;5028362;28;20053;-71
2021/01/12 01:06:31;;;;;;;40.33;19.63;;;;;;;-3.84;71.27;96567.72;5043294;28;20064;-71
2021/01/12 01:08:58;;;;;;;38.40;19.27;;;;;;;-3.85;71.01;96566.91;5043792;28;20049;-71
2021/01/12 01:11:24;;;;;;;38.70;18.98;;;;;;;-3.85;70.92;96571.25;5048079;28;20029;-71
2021/01/12 01:13:50;;;;;;;38.17;18.33;;;;;;;-3.82;71.27;96569.25;5046560;28;20048;-71
2021/01/12 01:16:17;;;;;;;36.65;17.98;;;;;;;-3.77;71.57;96572.22;5047145;28;20052;-70
2021/01/12 01:18:43;;;;;;;38.75;18.55;;;;;;;-3.76;71.24;96573.03;5052032;28;20064;-72
2021/01/12 01:21:13;;;;;;;36.60;17.85;;;;;;;-3.74;71.15;96574.56;5011792;28;20061;-72
2021/01/12 01:23:40;;;;;;;39.65;18.55;;;;;;;-3.71;71.33;96576.06;5049770;28;20041;-70
2021/01/12 01:26:06;;;;;;;35.95;17.75;;;;;;;-3.67;71.07;96585.13;5044658;28;20462;-70
2021/01/12 01:28:32;;;;;;;40.65;18.30;;;;;;;-3.63;71.43;96577.97;5040415;28;20048;-70
2021/01/12 01:30:59;;;;;;;33.45;17.83;;;;;;;-3.62;71.40;96582.16;5048577;28;20052;-72
2021/01/12 01:33:25;;;;;;;34.97;17.20;;;;;;;-3.61;71.18;96587.19;5052204;28;20044;-70
2021/01/12 01:35:51;;;;;;;35.78;17.42;;;;;;;-3.58;71.36;96592.03;5048470;28;20040;-70
2021/01/12 01:38:17;;;;;;;31.98;16.80;;;;;;;-3.55;71.17;96588.41;5042081;28;20049;-70
2021/01/12 01:40:44;;;;;;;31.10;15.63;;;;;;;-3.54;71.14;96585.72;5046317;28;20045;-71
2021/01/12 01:43:22;;;;;;;33.28;17.00;;;;;;;-3.52;71.58;96583.03;5047492;28;20040;-70
2021/01/12 01:45:50;;;;;;;33.28;16.73;;;;;;;-3.52;71.30;96583.84;5052688;28;20043;-71
2021/01/12 01:48:16;;;;;;;29.77;16.08;;;;;;;-3.51;71.33;96588.06;5046745;28;20036;-75
2021/01/12 01:50:42;;;;;;;33.95;16.15;;;;;;;-3.49;71.42;96572.53;5046989;28;20065;-71
2021/01/12 01:53:12;;;;;;;30.30;15.93;;;;;;;-3.45;71.71;96583.34;5051461;28;20052;-71
2021/01/12 01:55:40;;;;;;;32.58;17.23;;;;;;;-3.42;71.29;96578.78;5048827;28;20057;-71
2021/01/12 01:58:07;;;;;;;34.80;16.30;;;;;;;-3.38;71.38;96584.44;5043185;28;20033;-71
2021/01/12 02:00:35;;;;;;;29.42;15.50;;;;;;;-3.38;71.07;96575.03;5037950;28;20057;-71
2021/01/12 02:03:08;;;;;;;28.33;15.45;;;;;;;-3.38;71.40;96574.19;5044816;28;20053;-71
2021/01/12 02:05:39;;;;;;;29.67;15.70;;;;;;;-3.39;71.50;96577.69;5043920;28;20049;-71
2021/01/12 02:08:13;;;;;;;31.30;15.55;;;;;;;-3.40;71.31;96565.81;5050625;28;20051;-71
2021/01/12 02:10:42;;;;;;;;;;;;;;;-3.44;72.87;96559.31;5025475;28;20053;-75
2021/01/12 02:13:14;;;;;;;28.02;14.55;;;;;;;-3.44;71.66;96551.63;5043256;28;19913;-72
2021/01/12 02:15:43;;;;;;;26.50;13.40;;;;;;;-3.45;71.77;96543.13;5043268;28;20056;-71
2021/01/12 02:18:10;;;;;;;26.95;14.35;;;;;;;-3.40;71.52;96540.16;5043662;28;20049;-71
2021/01/12 02:20:38;;;;;;;27.83;13.93;;;;;;;-3.37;71.81;96534.81;5045944;28;20393;-72
2021/01/12 02:23:28;;;;;;;24.67;13.18;;;;;;;-3.37;72.24;96527.91;5046785;28;20049;-71
2021/01/12 02:25:55;;;;;;;23.98;13.75;;;;;;;-3.36;72.16;96515.91;5041276;28;20056;-71
2021/01/12 02:28:21;;;;;;;25.67;13.80;;;;;;;-3.35;72.31;96508.09;5045934;28;20056;-71
2021/01/12 02:30:47;;;;;;;28.98;13.32;;;;;;;-3.33;71.57;96502.84;5031551;28;20053;-71
2021/01/12 02:33:14;;;;;;;29.25;14.15;;;;;;;-3.33;72.15;96495.13;5048639;28;20061;-71
2021/01/12 02:35:42;;;;;;;24.95;13.13;;;;;;;-3.34;72.16;96504.59;5045169;28;20045;-71
2021/01/12 02:38:08;;;;;;;23.98;12.23;;;;;;;-3.32;71.79;96491.63;5048792;28;20048;-71
2021/01/12 02:40:34;;;;;;;24.92;12.13;;;;;;;-3.30;71.63;96495.69;5041140;28;20049;-71
2021/01/12 02:43:01;;;;;;;26.92;12.70;;;;;;;-3.29;71.97;96486.25;5045880;28;20045;-71
2021/01/12 02:45:27;;;;;;;25.23;12.93;;;;;;;-3.29;71.71;96481.91;5044961;28;20041;-73
2021/01/12 02:47:54;;;;;;;26.17;12.77;;;;;;;-3.31;71.88;96470.97;5051605;28;20477;-71
2021/01/12 02:50:20;;;;;;;25.58;13.07;;;;;;;-3.29;72.02;96463.97;5044700;28;20045;-74
2021/01/12 02:52:46;;;;;;;25.58;12.35;;;;;;;-3.28;71.96;96469.91;5045509;28;20056;-71
2021/01/12 02:55:13;;;;;;;24.50;13.23;;;;;;;-3.26;72.09;96476.53;5050976;28;20071;-71
2021/01/12 02:57:40;;;;;;;25.92;12.27;;;;;;;-3.19;72.11;96469.13;5051489;28;20033;-71
2021/01/12 03:00:12;;;;;;;22.42;12.15;;;;;;;-3.17;72.05;96464.69;5043183;28;20049;-72
2021/01/12 03:02:39;;;;;;;23.17;11.40;;;;;;;-3.11;71.98;96471.03;5045983;28;20052;-71
2021/01/12 03:05:08;;;;;;;23.15;11.55;;;;;;;-3.09;71.86;96472.53;5048155;28;20044;-71
2021/01/12 03:07:35;;;;;;;23.08;12.02;;;;;;;-3.06;72.45;96466.31;5051859;28;20057;-71
2021/01/12 03:10:05;;;;;;;24.17;11.48;;;;;;;-3.02;72.05;96467.69;5047966;28;20040;-71
2021/01/12 03:12:31;;;;;;;22.50;11.93;;;;;;;-2.99;71.83;96456.34;5047048;28;20064;-71
2021/01/12 03:14:57;;;;;;;22.20;11.27;;;;;;;-2.97;72.07;96454.44;5054712;28;20045;-71
2021/01/12 03:17:23;;;;;;;24.52;12.88;;;;;;;-2.96;72.07;96445.78;5037676;28;20068;-70
2021/01/12 03:19:50;;;;;;;25.17;12.73;;;;;;;-2.94;72.30;96446.47;5045717;28;20405;-71
2021/01/12 03:22:16;;;;;;;22.55;12.00;;;;;;;-2.92;72.11;96444.59;5028107;28;20478;-71
2021/01/12 03:24:42;;;;;;;22.50;11.75;;;;;;;-2.92;71.87;96435.16;5045159;28;20046;-72
2021/01/12 03:27:08;;;;;;;23.42;12.02;;;;;;;-2.92;72.09;96432.59;5046010;28;20057;-71
2021/01/12 03:29:35;;;;;;;23.95;11.82;;;;;;;-2.94;72.07;96424.22;5049761;28;20410;-71
2021/01/12 03:32:01;;;;;;;21.10;11.88;;;;;;;-2.92;72.00;96419.75;5032610;28;20056;-71
2021/01/12 03:34:28;;;;;;;23.63;12.48;;;;;;;-2.91;71.95;96418.81;5050503;28;20401;-71
2021/01/12 03:36:54;;;;;;;24.80;12.32;;;;;;;-2.92;72.04;96416.34;5047161;28;20053;-71
2021/01/12 03:39:20;;;;;;;23.83;12.48;;;;;;;-2.94;71.68;96408.00;5049948;28;20049;-71
2021/01/12 03:41:46;;;;;;;24.98;12.77;;;;;;;-2.96;71.63;96413.28;5044314;28;20049;-70
2021/01/12 03:44:13;;;;;;;29.05;13.60;;;;;;;-2.97;71.99;96405.69;5054413;28;20054;-71
2021/01/12 03:46:39;;;;;;;22.83;13.15;;;;;;;-2.96;71.91;96405.56;5049316;28;20405;-71
2021/01/12 03:49:06;;;;;;;23.52;12.85;;;;;;;-2.97;72.06;96398.00;5054555;28;20049;-72
2021/01/12 03:51:32;;;;;;;24.33;13.20;;;;;;;-2.97;72.08;96393.69;5039668;28;20045;-71
2021/01/12 03:53:59;;;;;;;24.17;12.98;;;;;;;-2.94;72.35;96396.00;5047194;28;20037;-71
2021/01/12 03:56:25;;;;;;;22.05;12.50;;;;;;;-2.96;72.44;96395.31;5047541;28;20056;-71
2021/01/12 03:58:51;;;;;;;25.80;11.95;;;;;;;-2.95;72.51;96386.66;5054912;28;20056;-71
2021/01/12 04:01:17;;;;;;;22.45;11.63;;;;;;;-2.93;72.46;96377.06;5045503;28;20174;-71
2021/01/12 04:03:44;;;;;;;23.92;11.43;;;;;;;-2.91;72.57;96370.06;5034880;28;20056;-71
2021/01/12 04:06:15;;;;;;;22.95;11.60;;;;;;;-2.91;73.02;96361.56;5046418;28;20052;-71
2021/01/12 04:08:46;;;;;;;22.67;11.40;;;;;;;-2.90;72.78;96358.84;5044986;28;20057;-71
2021/01/12 04:11:13;;;;;;;21.42;10.95;;;;;;;-2.89;73.13;96364.78;5055460;28;20040;-71
2021/01/12 04:13:40;;;;;;;22.02;11.50;;;;;;;-2.86;73.15;96364.50;5051772;28;20055;-71
2021/01/12 04:16:07;;;;;;;20.70;11.40;;;;;;;-2.85;72.99;96361.00;5043573;28;20053;-71
2021/01/12 04:18:34;;;;;;;21.45;11.80;;;;;;;-2.82;73.10;96360.72;5051833;28;20041;-71
2021/01/12 04:21:00;;;;;;;19.95;10.50;;;;;;;-2.78;73.20;96356.13;5046765;28;20064;-71
2021/01/12 04:23:27;;;;;;;23.58;11.68;;;;;;;-2.76;72.87;96354.25;5034809;28;20040;-71
2021/01/12 04:25:53;;;;;;;18.60;10.18;;;;;;;-2.72;73.13;96356.38;5026245;28;20034;-71
2021/01/12 04:28:19;;;;;;;20.52;10.80;;;;;;;-2.71;73.02;96352.06;5051172;28;20505;-72
2021/01/12 04:30:46;;;;;;;21.08;11.45;;;;;;;-2.71;73.16;96347.75;5042847;28;20064;-76
2021/01/12 04:33:12;;;;;;;22.17;11.18;;;;;;;-2.69;72.96;96350.16;5033657;28;20515;-71
2021/01/12 04:35:40;;;;;;;20.15;11.20;;;;;;;-2.70;72.71;96344.22;5048572;28;20052;-71
2021/01/12 04:38:06;;;;;;;25.52;12.27;;;;;;;-2.68;73.11;96350.03;5045361;28;20048;-71
2021/01/12 04:40:33;;;;;;;23.15;12.35;;;;;;;-2.68;72.84;96339.78;5049485;28;21870;-72
2021/01/12 04:42:59;;;;;;;24.20;12.13;;;;;;;-2.70;73.14;96338.28;5045486;28;20037;-71
2021/01/12 04:45:26;;;;;;;22.80;11.65;;;;;;;-2.71;73.13;96332.34;5050264;28;20410;-71
2021/01/12 04:47:53;;;;;;;23.80;12.35;;;;;;;-2.71;73.22;96334.09;5047677;28;20770;-71
2021/01/12 04:50:19;;;;;;;24.88;12.52;;;;;;;-2.70;73.30;96323.69;5043515;28;20409;-71
2021/01/12 04:52:50;;;;;;;24.25;12.35;;;;;;;-2.68;73.66;96326.13;5050734;28;20051;-71
2021/01/12 04:55:18;;;;;;;25.05;11.88;;;;;;;-2.66;73.52;96327.59;5048771;28;20073;-72
2021/01/12 04:57:44;;;;;;;25.90;13.10;;;;;;;-2.66;73.71;96325.03;5046152;28;20057;-71
2021/01/12 05:00:16;;;;;;;26.55;13.45;;;;;;;-2.65;73.62;96318.16;5047797;28;20069;-71
2021/01/12 05:02:54;;;;;;;22.83;12.57;;;;;;;-2.66;73.17;96324.25;5040014;28;20048;-71
2021/01/12 05:05:20;;;;;;;27.13;13.05;;;;;;;-2.68;73.33;96321.81;5050838;28;20478;-71
2021/01/12 05:07:46;;;;;;;24.15;13.25;;;;;;;-2.68;73.80;96313.31;5042962;28;20080;-71
2021/01/12 05:10:13;;;;;;;25.95;12.85;;;;;;;-2.67;73.52;96317.47;5039811;28;20051;-72
2021/01/12 05:12:40;;;;;;;25.85;13.30;;;;;;;-2.68;73.66;96316.66;5043865;28;20059;-72
2021/01/12 05:15:10;;;;;;;25.15;12.80;;;;;;;-2.68;74.30;96303.03;5026015;28;20492;-74
2021/01/12 05:17:37;;;;;;;26.05;12.85;;;;;;;-2.65;73.97;96307.88;5065356;28;20056;-71
2021/01/12 05:20:04;;;;;;;25.80;13.52;;;;;;;-2.63;74.24;96305.19;5067173;28;20044;-71
2021/01/12 05:22:38;;;;;;;24.77;11.77;;;;;;;-2.61;74.50;96293.00;5069500;28;20063;-71
2021/01/12 05:25:19;;;;;;;24.08;12.38;;;;;;;-2.61;74.30;96291.25;5070228;28;20051;-71
2021/01/12 05:27:54;;;;;;;26.63;13.60;;;;;;;-2.59;74.64;96291.13;5060540;28;20045;-72
2021/01/12 05:30:25;;;;;;;27.95;13.57;;;;;;;-2.59;73.96;96291.13;5079936;28;20053;-71
2021/01/12 05:32:53;;;;;;;25.73;13.65;;;;;;;-2.61;74.26;96286.13;5061476;28;20045;-74
2021/01/12 05:35:20;;;;;;;29.42;13.90;;;;;;;-2.62;74.28;96284.50;5061987;28;20033;-71
2021/01/12 05:37:46;;;;;;;29.45;15.27;;;;;;;-2.60;74.34;96277.47;5068698;28;20075;-71
2021/01/12 05:40:13;;;;;;;26.30;13.18;;;;;;;-2.59;74.35;96265.44;5069235;28;20048;-71
2021/01/12 05:42:40;;;;;;;26.90;14.02;;;;;;;-2.58;74.67;96269.63;5059996;28;20489;-71
2021/01/12 05:45:07;;;;;;;29.55;13.80;;;;;;;-2.61;74.51;96265.56;5065112;28;20055;-71
2021/01/12 05:47:34;;;;;;;25.55;13.45;;;;;;;-2.61;74.40;96263.00;5061407;28;20163;-71
2021/01/12 05:50:00;;;;;;;28.75;13.98;;;;;;;-2.60;74.68;96262.06;5068794;28;20060;-71
2021/01/12 05:52:34;;;;;;;27.45;14.32;;;;;;;-2.58;74.64;96261.91;5070055;28;20040;-71
2021/01/12 05:55:05;;;;;;;24.40;12.93;;;;;;;-2.56;75.56;96254.88;5061298;28;20060;-71
2021/01/12 05:57:38;;;;;;;24.30;13.32;;;;;;;-2.55;75.87;96248.81;5064066;28;20037;-71
2021/01/12 06:00:05;;;;;;;22.38;12.27;;;;;;;-2.55;75.74;96246.25;5063070;28;20412;-71
2021/01/12 06:02:33;;;;;;;25.73;13.23;;;;;;;-2.50;75.86;96242.31;5062347;28;20039;-71
2021/01/12 06:05:00;;;;;;;24.38;12.77;;;;;;;-2.48;76.10;96237.84;5063478;28;20047;-71
2021/01/12 06:07:27;;;;;;;26.27;12.77;;;;;;;-2.46;75.81;96228.25;5068605;28;20428;-71
2021/01/12 06:09:54;;;;;;;24.25;11.23;;;;;;;-2.41;76.19;96235.53;5069020;28;20049;-71
2021/01/12 06:12:25;;;;;;;26.95;13.00;;;;;;;-2.39;76.22;96233.63;5067674;28;20032;-71
2021/01/12 06:14:53;;;;;;;25.10;12.68;;;;;;;-2.34;76.43;96244.25;5058506;28;20048;-71
2021/01/12 06:17:19;;;;;;;26.98;11.98;;;;;;;-2.30;76.07;96237.88;5049127;28;20642;-71
2021/01/12 06:19:47;;;;;;;22.85;12.27;;;;;;;-2.26;76.43;96228.16;5043003;28;20512;-72
2021/01/12 06:22:23;;;;;;;23.33;12.13;;;;;;;-2.22;76.80;96226.91;5046238;28;20052;-71
2021/01/12 06:24:54;;;;;;;22.83;11.32;;;;;;;-2.21;76.47;96232.84;5050505;28;20045;-71
2021/01/12 06:27:28;;;;;;;23.38;12.75;;;;;;;-2.19;76.43;96234.31;5040257;28;20052;-71
2021/01/12 06:29:57;;;;;;;28.10;12.48;;;;;;;-2.17;76.23;96227.28;5041776;28;20042;-71
2021/01/12 06:32:29;;;;;;;24.40;12.60;;;;;;;-2.17;76.47;96222.13;5041741;28;20033;-72
2021/01/12 06:35:07;;;;;;;24.98;12.68;;;;;;;-2.18;76.46;96214.56;5040506;28;20052;-71
2021/01/12 06:37:42;;;;;;;25.90;12.82;;;;;;;-2.17;76.93;96216.19;5042191;28;20049;-71
2021/01/12 06:40:11;;;;;;;23.77;12.32;;;;;;;-2.18;76.54;96210.25;5048960;28;20056;-71
2021/01/12 06:42:38;;;;;;;22.85;12.05;;;;;;;-2.17;76.86;96196.44;5047037;28;20045;-71
2021/01/12 06:45:07;;;;;;;25.77;13.00;;;;;;;-2.15;77.03;96191.16;5016341;28;20063;-77
2021/01/12 06:47:34;;;;;;;23.77;12.18;;;;;;;-2.13;77.07;96186.69;5047723;28;20060;-71
2021/01/12 06:50:11;;;;;;;24.35;13.57;;;;;;;-2.10;77.01;96192.38;5051931;28;20059;-71
2021/01/12 06:52:48;;;;;;;25.65;12.85;;;;;;;-2.09;77.65;96190.59;5048553;28;20407;-71
2021/01/12 06:55:16;;;;;;;25.25;12.50;;;;;;;-2.07;77.52;96183.56;5052000;28;20489;-71
2021/01/12 06:57:50;;;;;;;23.98;12.18;;;;;;;-2.06;78.07;96183.41;5052624;28;20041;-71
2021/01/12 07:00:21;;;;;;;21.52;11.68;;;;;;;-2.04;77.57;96178.09;5047171;28;20038;-71
2021/01/12 07:02:58;;;;;;;22.17;12.05;;;;;;;-2.02;78.87;96176.19;5049768;28;20049;-71
2021/01/12 07:05:24;;;;;;;23.83;11.73;;;;;;;-2.00;77.97;96178.63;5045719;28;20051;-71
2021/01/12 07:07:52;;;;;;;26.52;11.50;;;;;;;-1.96;78.60;96167.91;5053176;28;20048;-71
2021/01/12 07:10:24;;;;;;;25.38;12.75;;;;;;;-1.94;79.47;96171.16;5044307;28;20033;-75
2021/01/12 07:12:52;;;;;;;24.38;11.85;;;;;;;-1.92;78.56;96166.66;5033513;28;20038;-71
2021/01/12 07:15:20;;;;;;;26.55;12.50;;;;;;;-1.89;79.27;96168.13;5044427;28;20473;-71
2021/01/12 07:17:48;;;;;;;21.98;11.95;;;;;;;-1.88;79.26;96160.28;5044122;28;20412;-71
2021/01/12 07:20:18;;;;;;;24.75;13.13;;;;;;;-1.85;79.75;96159.16;5044664;28;20037;-71
2021/01/12 07:22:51;;;;;;;21.73;12.00;;;;;;;-1.84;81.06;96159.03;5052302;28;20053;-75
2021/01/12 07:25:24;;;;;;;15.90;8.70;;;;;;;-1.80;80.46;96162.13;5046163;28;20393;-71
2021/01/12 07:28:14;;;;;;;23.48;11.93;;;;;;;-1.76;81.01;96163.44;5052634;28;20045;-71
2021/01/12 07:30:51;;;;;;;22.67;12.32;;;;;;;-1.75;81.66;96157.34;5041107;28;20044;-71
2021/01/12 07:33:21;;;;;;;23.20;11.77;;;;;;;-1.75;80.66;96144.47;5036511;28;20057;-71
2021/01/12 07:35:50;;;;;;;29.38;13.18;;;;;;;-1.73;81.01;96139.19;5044806;28;20052;-71
2021/01/12 07:38:19;;;;;;;24.38;12.77;;;;;;;-1.73;81.14;96140.00;5051422;28;20053;-71
2021/01/12 07:40:46;;;;;;;24.70;13.43;;;;;;;-1.69;80.36;96140.53;5047871;28;20053;-71
2021/01/12 07:43:17;;;;;;;25.80;13.30;;;;;;;-1.68;80.64;96135.25;5040326;28;20041;-73
2021/01/12 07:45:45;;;;;;;25.60;13.25;;;;;;;-1.67;80.90;96130.91;5046897;28;20052;-71
2021/01/12 07:48:14;;;;;;;25.70;12.95;;;;;;;-1.65;80.92;96144.41;5048450;28;20402;-71
2021/01/12 07:50:44;;;;;;;22.35;12.02;;;;;;;-1.63;80.98;96143.28;5044156;28;20508;-71
2021/01/12 07:53:13;;;;;;;22.92;12.30;;;;;;;-1.59;80.65;96143.00;5048378;28;20512;-73
2021/01/12 07:55:41;;;;;;;28.27;14.73;;;;;;;-1.56;80.77;96146.06;5043720;28;20037;-73
2021/01/12 07:58:08;;;;;;;26.33;13.70;;;;;;;-1.54;80.33;96141.59;5048034;28;20045;-71
2021/01/12 08:00:35;;;;;;;26.30;12.88;;;;;;;-1.52;80.95;96131.97;5047522;28;20045;-71
2021/01/12 08:03:03;;;;;;;29.38;13.95;;;;;;;-1.51;81.44;96125.03;5044598;28;20045;-71
2021/01/12 08:05:30;;;;;;;26.83;12.73;;;;;;;-1.50;81.29;96131.81;5042491;28;20033;-72
2021/01/12 08:08:02;;;;;;;25.23;13.10;;;;;;;-1.47;81.81;96132.34;5035320;28;20053;-74
2021/01/12 08:10:34;;;;;;;23.83;12.82;;;;;;;-1.44;81.68;96133.78;5037102;28;20041;-71
2021/01/12 08:13:10;;;;;;;24.55;13.02;;;;;;;-1.42;81.93;96129.31;5038766;28;20049;-71
2021/01/12 08:15:39;;;;;;;26.20;13.68;;;;;;;-1.38;82.20;96127.25;5049750;28;20041;-71
2021/01/12 08:18:10;;;;;;;23.48;12.55;;;;;;;-1.36;82.40;96117.63;5046561;28;20057;-71
2021/01/12 08:20:37;;;;;;;24.73;12.65;;;;;;;-1.34;82.37;96124.22;5046753;28;20037;-72
2021/01/12 08:23:03;;;;;;;24.58;12.48;;;;;;;-1.31;82.46;96115.38;5046403;28;20057;-71
2021/01/12 08:25:33;;;;;;;26.40;13.73;;;;;;;-1.30;82.91;96115.25;5041796;28;20052;-71
2021/01/12 08:28:01;;;;;;;22.50;12.23;;;;;;;-1.27;82.54;96121.84;5049691;28;20049;-72
2021/01/12 08:30:29;;;;;;;26.45;13.00;;;;;;;-1.24;82.58;96113.81;5023550;28;20053;-71
2021/01/12 08:33:09;;;;;;;27.35;13.73;;;;;;;-1.20;83.17;96112.53;5050013;28;20052;-71
2021/01/12 08:35:47;;;;;;;25.88;12.88;;;;;;;-1.14;83.56;96108.56;5038372;28;20485;-74
2021/01/12 08:38:14;;;;;;;25.65;11.30;;;;;;;-1.13;84.12;96108.41;5045942;28;20393;-71
2021/01/12 08:40:46;;;;;;;26.83;13.52;;;;;;;-1.08;83.23;96101.03;5041596;28;20402;-71
2021/01/12 08:43:29;;;;;;;29.95;12.57;;;;;;;-1.03;83.41;96098.81;5049900;28;20044;-75
2021/01/12 08:46:03;;;;;;;22.63;11.80;;;;;;;-0.95;84.40;96107.53;5026695;28;20050;-71
2021/01/12 08:48:29;;;;;;;28.83;13.07;;;;;;;-0.92;84.01;96099.50;5051467;28;20482;-72
2021/01/12 08:50:56;;;;;;;26.67;12.77;;;;;;;-0.89;84.03;96100.00;5041464;28;20072;-73
2021/01/12 08:53:31;;;;;;;27.70;12.57;;;;;;;-0.85;83.82;96100.50;5044313;28;20041;-71
2021/01/12 08:56:24;;;;;;;23.90;11.60;;;;;;;-0.77;84.21;96103.09;5047099;28;20044;-71
2021/01/12 08:59:01;;;;;;;27.65;12.55;;;;;;;-0.73;84.01;96094.09;5020620;28;20488;-71
2021/01/12 09:01:29;;;;;;;23.45;10.95;;;;;;;-0.68;83.10;96109.88;5029447;28;20068;-71
2021/01/12 09:04:15;;;;;;;24.65;11.20;;;;;;;-0.60;83.85;96103.97;5046012;28;21576;-71
2021/01/12 09:06:45;;;;;;;20.92;10.45;;;;;;;-0.55;83.37;96099.13;5047527;28;20499;-71
2021/01/12 09:09:13;;;;;;;21.58;11.07;;;;;;;-0.52;83.15;96091.13;5047143;28;20051;-72
2021/01/12 09:11:47;;;;;;;25.88;11.90;;;;;;;-0.48;85.04;96091.63;5042159;28;20064;-74
2021/01/12 09:14:19;;;;;;;20.55;10.32;;;;;;;-0.49;84.52;96093.34;5041713;28;20043;-72
2021/01/12 09:16:47;;;;;;;20.07;9.93;;;;;;;-0.48;84.70;96087.25;5043218;28;20045;-71
2021/01/12 09:19:17;;;;;;;8.13;4.75;;;;;;;-0.42;86.41;96088.38;5047584;28;20064;-75
2021/01/12 09:21:45;;;;;;;4.00;3.10;;;;;;;-0.35;85.95;96091.94;5048954;28;20495;-71
2021/01/12 09:24:23;;;;;;;4.18;2.13;;;;;;;-0.22;86.27;96099.22;5027868;28;20492;-71
2021/01/12 09:27:02;;;;;;;4.20;3.20;;;;;;;-0.08;86.43;96101.19;5041061;28;20063;-71
2021/01/12 09:29:28;;;;;;;4.30;2.17;;;;;;;0.01;84.90;96098.59;5050683;28;20496;-72
2021/01/12 09:31:55;;;;;;;3.55;1.70;;;;;;;0.09;84.64;96096.03;5043223;28;20033;-71
2021/01/12 09:34:23;;;;;;;2.65;2.25;;;;;;;0.16;84.71;96090.06;5044398;28;20045;-71
2021/01/12 09:36:50;;;;;;;1.75;1.33;;;;;;;0.22;84.37;96093.78;5045051;28;20472;-71
2021/01/12 09:39:17;;;;;;;1.98;1.77;;;;;;;0.29;84.36;96091.34;5049757;28;20060;-71
2021/01/12 09:41:43;;;;;;;1.77;1.60;;;;;;;0.32;84.55;96078.94;5042850;28;20056;-72
2021/01/12 09:44:10;;;;;;;2.63;1.73;;;;;;;0.36;84.25;96085.38;5052292;28;20489;-72
2021/01/12 09:46:36;;;;;;;3.28;1.80;;;;;;;0.40;84.16;96088.44;5049108;28;20039;-72
2021/01/12 09:49:04;;;;;;;4.38;2.25;;;;;;;0.42;84.53;96083.94;5050104;28;20048;-72
2021/01/12 09:51:30;;;;;;;2.17;1.60;;;;;;;0.46;84.47;96076.66;5049688;28;20051;-72
2021/01/12 09:53:57;;;;;;;4.05;1.60;;;;;;;0.49;84.54;96081.50;5049759;28;20037;-72
2021/01/12 09:56:23;;;;;;;2.65;1.73;;;;;;;0.51;84.60;96080.38;5029689;28;20044;-72
2021/01/12 09:58:51;;;;;;;3.42;1.70;;;;;;;0.54;84.50;96077.44;5049709;28;20489;-72
2021/01/12 10:01:21;;;;;;;2.55;1.75;;;;;;;0.56;85.29;96077.28;5044751;28;20048;-72
2021/01/12 10:03:48;;;;;;;2.88;1.95;;;;;;;0.56;84.68;96078.09;5044703;28;20043;-72
2021/01/12 10:06:16;;;;;;;2.72;2.03;;;;;;;0.59;84.56;96082.94;5040134;28;20492;-72
2021/01/12 10:08:42;;;;;;;2.63;1.70;;;;;;;0.62;84.76;96075.84;5049338;28;20043;-72
2021/01/12 10:11:09;;;;;;;2.20;2.00;;;;;;;0.59;85.14;96075.19;5051080;28;20045;-72
2021/01/12 10:13:36;;;;;;;2.60;1.90;;;;;;;0.60;84.88;96066.47;5051834;28;20417;-71
2021/01/12 10:16:02;;;;;;;5.25;1.95;;;;;;;0.59;85.08;96069.22;5048797;28;20393;-72
2021/01/12 10:18:29;;;;;;;4.60;1.83;;;;;;;0.63;85.07;96067.94;5043471;28;20049;-72
2021/01/12 10:20:56;;;;;;;2.13;1.27;;;;;;;0.63;85.61;96064.53;5045266;28;20061;-75
2021/01/12 10:23:22;;;;;;;1.75;1.60;;;;;;;0.60;85.38;96063.88;5027944;28;20045;-71
2021/01/12 10:25:49;;;;;;;2.22;1.50;;;;;;;0.59;86.02;96053.75;5044636;28;20049;-72
2021/01/12 10:28:16;;;;;;;3.53;1.80;;;;;;;0.58;85.53;96063.25;5051854;28;20041;-72
2021/01/12 10:30:43;;;;;;;2.88;1.58;;;;;;;0.57;86.11;96053.13;5047783;28;20052;-72
2021/01/12 10:33:09;;;;;;;2.92;1.90;;;;;;;0.55;86.08;96050.69;5037273;28;20048;-72
2021/01/12 10:35:35;;;;;;;2.10;1.70;;;;;;;0.55;86.38;96045.53;5045321;28;20068;-71
2021/01/12 10:38:02;;;;;;;6.25;3.15;;;;;;;0.54;86.85;96043.91;5052109;28;20041;-72
2021/01/12 10:40:29;;;;;;;1.90;1.70;;;;;;;0.53;86.49;96044.88;5025354;28;20053;-72
2021/01/12 10:42:55;;;;;;;5.47;2.50;;;;;;;0.52;86.75;96037.31;5047109;28;20053;-72
2021/01/12 10:45:23;;;;;;;2.10;1.70;;;;;;;0.51;86.74;96033.94;5030360;28;20044;-71
2021/01/12 10:47:49;;;;;;;2.33;1.50;;;;;;;0.47;87.14;96030.06;5050664;28;20037;-72
2021/01/12 10:50:20;;;;;;;1.63;1.40;;;;;;;0.50;87.43;96018.59;5046675;28;20048;-72
2021/01/12 10:52:47;;;;;;;3.33;1.23;;;;;;;0.49;87.77;96017.00;5026626;28;20481;-72
2021/01/12 10:55:14;;;;;;;1.65;1.35;;;;;;;0.49;87.62;96011.84;5025068;28;20048;-72
2021/01/12 10:57:45;;;;;;;1.25;1.00;;;;;;;0.50;87.65;96003.94;5042079;28;20056;-75
2021/01/12 11:00:12;;;;;;;2.38;1.00;;;;;;;0.52;87.81;96001.19;5042055;28;20052;-72
2021/01/12 11:02:38;;;;;;;2.17;1.20;;;;;;;0.54;87.77;96007.00;5037672;28;20041;-73
2021/01/12 11:05:05;;;;;;;1.88;1.25;;;;;;;0.54;87.91;96004.41;5029832;28;20037;-72
2021/01/12 11:07:32;;;;;;;2.72;1.42;;;;;;;0.93;97.55;95999.28;5043781;28;20041;-73
2021/01/12 11:09:59;;;;;;;2.08;1.20;;;;;;;1.21;89.71;96004.75;5046508;28;20061;-73
2021/01/12 11:12:26;;;;;;;1.05;0.90;;;;;;;1.10;87.03;95994.81;5047452;28;20049;-73
2021/01/12 11:14:53;;;;;;;0.98;0.95;;;;;;;1.02;86.36;95998.25;5047456;28;20048;-73
2021/01/12 11:17:19;;;;;;;1.00;0.90;;;;;;;0.90;86.65;95989.25;5048174;28;20060;-73
2021/01/12 11:19:46;;;;;;;3.92;1.48;;;;;;;0.84;86.92;95983.97;5034635;28;20032;-73
2021/01/12 11:22:13;;;;;;;1.42;1.30;;;;;;;0.80;87.12;95986.09;5044101;28;20053;-74
2021/01/12 11:24:40;;;;;;;1.25;1.00;;;;;;;0.73;87.28;95974.81;5050315;28;20049;-75
2021/01/12 11:27:08;;;;;;;2.75;1.13;;;;;;;0.69;87.12;95969.19;5026207;28;20029;-73